地図

経路データ

SID SEASON NUMBER BASIN SUBBASIN NAME ISO_TIME NATURE LAT LON WMO_WIND WMO_PRES WMO_AGENCY TRACK_TYPE DIST2LAND LANDFALL IFLAG USA_AGENCY USA_ATCF_ID USA_LAT USA_LON USA_RECORD USA_STATUS USA_WIND USA_PRES USA_SSHS USA_R34_NE USA_R34_SE USA_R34_SW USA_R34_NW USA_R50_NE USA_R50_SE USA_R50_SW USA_R50_NW USA_R64_NE USA_R64_SE USA_R64_SW USA_R64_NW USA_POCI USA_ROCI USA_RMW USA_EYE TOKYO_LAT TOKYO_LON TOKYO_GRADE TOKYO_WIND TOKYO_PRES TOKYO_R50_DIR TOKYO_R50_LONG TOKYO_R50_SHORT TOKYO_R30_DIR TOKYO_R30_LONG TOKYO_R30_SHORT TOKYO_LAND CMA_LAT CMA_LON CMA_CAT CMA_WIND CMA_PRES HKO_LAT HKO_LON HKO_CAT HKO_WIND HKO_PRES NEWDELHI_LAT NEWDELHI_LON NEWDELHI_GRADE NEWDELHI_WIND NEWDELHI_PRES NEWDELHI_CI NEWDELHI_DP NEWDELHI_POCI REUNION_LAT REUNION_LON REUNION_TYPE REUNION_WIND REUNION_PRES REUNION_TNUM REUNION_CI REUNION_RMW REUNION_R34_NE REUNION_R34_SE REUNION_R34_SW REUNION_R34_NW REUNION_R50_NE REUNION_R50_SE REUNION_R50_SW REUNION_R50_NW REUNION_R64_NE REUNION_R64_SE REUNION_R64_SW REUNION_R64_NW BOM_LAT BOM_LON BOM_TYPE BOM_WIND BOM_PRES BOM_TNUM BOM_CI BOM_RMW BOM_R34_NE BOM_R34_SE BOM_R34_SW BOM_R34_NW BOM_R50_NE BOM_R50_SE BOM_R50_SW BOM_R50_NW BOM_R64_NE BOM_R64_SE BOM_R64_SW BOM_R64_NW BOM_ROCI BOM_POCI BOM_EYE BOM_POS_METHOD BOM_PRES_METHOD NADI_LAT NADI_LON NADI_CAT NADI_WIND NADI_PRES WELLINGTON_LAT WELLINGTON_LON WELLINGTON_WIND WELLINGTON_PRES DS824_LAT DS824_LON DS824_STAGE DS824_WIND DS824_PRES TD9636_LAT TD9636_LON TD9636_STAGE TD9636_WIND TD9636_PRES TD9635_LAT TD9635_LON TD9635_WIND TD9635_PRES TD9635_ROCI NEUMANN_LAT NEUMANN_LON NEUMANN_CLASS NEUMANN_WIND NEUMANN_PRES MLC_LAT MLC_LON MLC_CLASS MLC_WIND MLC_PRES USA_GUST BOM_GUST BOM_GUST_PER REUNION_GUST REUNION_GUST_PER USA_SEAHGT USA_SEARAD_NE USA_SEARAD_SE USA_SEARAD_SW USA_SEARAD_NW STORM_SPEED STORM_DIR
1868011S17062 1868 3 SI MM NOT_NAMED 1868-01-11 06:00:00 NR -17.3000 61.9000 reunion main 542 542 _____O________ -1 -17.3000 61.9000 99 9.90000 1 316
1868011S17062 1868 3 SI MM NOT_NAMED 1868-01-11 09:00:00 NR -17.2600 61.8495 main 533 533 _____P________ -1 -17.2600 61.8495 99 1 304
1868011S17062 1868 3 SI MM NOT_NAMED 1868-01-11 12:00:00 NR -17.2297 61.7919 main 540 531 _____P________ -1 -17.2297 61.7919 99 1 288
1868011S17062 1868 3 SI MM NOT_NAMED 1868-01-11 15:00:00 NR -17.2191 61.7202 main 531 523 _____P________ -1 -17.2191 61.7202 99 2 267
1868011S17062 1868 3 SI MM NOT_NAMED 1868-01-11 18:00:00 NR -17.2377 61.6274 main 523 508 _____P________ -1 -17.2377 61.6274 99 2 250
1868011S17062 1868 3 SI MM NOT_NAMED 1868-01-11 21:00:00 NR -17.2954 61.5062 main 508 492 _____P________ -1 -17.2954 61.5062 99 3 238
1868011S17062 1868 3 SI MM NOT_NAMED 1868-01-12 00:00:00 NR -17.4019 61.3495 main 484 462 _____P________ -1 -17.4019 61.3495 99 4 231
1868011S17062 1868 3 SI MM NOT_NAMED 1868-01-12 03:00:00 NR -17.5669 61.1499 main 454 423 _____P________ -1 -17.5669 61.1499 99 6 227
1868011S17062 1868 3 SI MM NOT_NAMED 1868-01-12 06:00:00 NR -17.8000 60.9000 reunion main 423 378 _____O________ -1 -17.8000 60.9000 99 9.90000 8 224
1868011S17062 1868 3 SI MM NOT_NAMED 1868-01-12 09:00:00 NR -18.1067 60.5963 main 378 326 _____P________ -1 -18.1067 60.5963 99 9 222
1868011S17062 1868 3 SI MM NOT_NAMED 1868-01-12 12:00:00 NR -18.4752 60.2527 main 326 266 _____P________ -1 -18.4752 60.2527 99 10 221
1868011S17062 1868 3 SI MM NOT_NAMED 1868-01-12 15:00:00 NR -18.8895 59.8875 main 266 208 _____P________ -1 -18.8895 59.8875 99 11 219
1868011S17062 1868 3 SI MM NOT_NAMED 1868-01-12 18:00:00 NR -19.3340 59.5193 main 208 156 _____P________ -1 -19.3340 59.5193 99 11 217
1868011S17062 1868 3 SI MM NOT_NAMED 1868-01-12 21:00:00 NR -19.7927 59.1671 main 156 115 _____P________ -1 -19.7927 59.1671 99 11 214
1868011S17062 1868 3 SI MM NOT_NAMED 1868-01-13 00:00:00 NR -20.2502 58.8500 main 104 89 _____P________ -1 -20.2502 58.8500 99 11 211
1868011S17062 1868 3 SI MM NOT_NAMED 1868-01-13 03:00:00 NR -20.6911 58.5877 main 94 89 _____P________ -1 -20.6911 58.5877 99 10 206
1868011S17062 1868 3 SI MM NOT_NAMED 1868-01-13 06:00:00 NR -21.1000 58.4000 reunion main 98 98 _____O________ -1 -21.1000 58.4000 99 9.90000 8 196
1868011S17062 1868 3 SI MM NOT_NAMED 1868-01-13 09:00:00 NR -21.4461 58.3586 main 124 124 _____P________ -1 -21.4461 58.3586 99 7 182
1868011S17062 1868 3 SI MM NOT_NAMED 1868-01-13 12:00:00 NR -21.7709 58.3909 main 162 162 _____P________ -1 -21.7709 58.3909 99 6 170
1868011S17062 1868 3 SI MM NOT_NAMED 1868-01-13 15:00:00 NR -22.0732 58.4821 main 197 197 _____P________ -1 -22.0732 58.4821 99 6 160
1868011S17062 1868 3 SI MM NOT_NAMED 1868-01-13 18:00:00 NR -22.3515 58.6175 main 231 231 _____P________ -1 -22.3515 58.6175 99 6 153
1868011S17062 1868 3 SI MM NOT_NAMED 1868-01-13 21:00:00 NR -22.6047 58.7821 main 260 260 _____P________ -1 -22.6047 58.7821 99 6 147
1868011S17062 1868 3 SI MM NOT_NAMED 1868-01-14 00:00:00 NR -22.8313 58.9609 main 290 290 _____P________ -1 -22.8313 58.9609 99 5 142
1868011S17062 1868 3 SI MM NOT_NAMED 1868-01-14 03:00:00 NR -23.0301 59.1387 main 314 314 _____P________ -1 -23.0301 59.1387 99 5 140
1868011S17062 1868 3 SI MM NOT_NAMED 1868-01-14 06:00:00 NR -23.2000 59.3000 reunion main 344 344 _____O________ -1 -23.2000 59.3000 99 9.90000 4 139
1868011S17062 1868 3 SI MM NOT_NAMED 1868-01-14 09:00:00 NR -23.3406 59.4327 main 358 358 _____P________ -1 -23.3406 59.4327 99 3 139
1868011S17062 1868 3 SI MM NOT_NAMED 1868-01-14 12:00:00 NR -23.4549 59.5375 main 383 383 _____P________ -1 -23.4549 59.5375 99 3 141
1868011S17062 1868 3 SI MM NOT_NAMED 1868-01-14 15:00:00 NR -23.5467 59.6181 main 388 388 _____P________ -1 -23.5467 59.6181 99 2 142
1868011S17062 1868 3 SI MM NOT_NAMED 1868-01-14 18:00:00 NR -23.6198 59.6787 main 403 403 _____P________ -1 -23.6198 59.6787 99 2 144
1868011S17062 1868 3 SI MM NOT_NAMED 1868-01-14 21:00:00 NR -23.6779 59.7232 main 412 412 _____P________ -1 -23.6779 59.7232 99 1 147
1868011S17062 1868 3 SI MM NOT_NAMED 1868-01-15 00:00:00 NR -23.7249 59.7555 main 418 418 _____P________ -1 -23.7249 59.7555 99 1 146
1868011S17062 1868 3 SI MM NOT_NAMED 1868-01-15 03:00:00 NR -23.7643 59.7798 main 427 427 _____P________ -1 -23.7643 59.7798 99 1 148
1868011S17062 1868 3 SI MM NOT_NAMED 1868-01-15 06:00:00 NR -23.8000 59.8000 reunion main 427 _____O________ -1 -23.8000 59.8000 99 9.90000 1 154

IBTrACS Databaseについて

本データベースは、米国NOAAが公開する1842年以降の世界の熱帯低気圧のベストトラックデータアーカイブInternational Best Track Archive for Climate Stewardship (IBTrACS)を、ウェブで閲覧しやすい形式に変換したものです。

最終更新日:2021-12-01